Time;durP1;ratioP1;P1;durP2;ratioP2;P2;SDS_P1;SDS_P2;PMS_P1;PMS_P2;Temp;Humidity;BMP_temperature;BMP_pressure;BME280_temperature;BME280_humidity;BME280_pressure;Samples;Min_cycle;Max_cycle;Signal;HPM_P1;HPM_P2
2023/06/28 00:00:25;;;;;;;7.35;1.92;;;;;;;;;;4995575;28;20030;-77
2023/06/28 00:02:55;;;;;;;4.45;1.70;;;;;;;;;;5010962;28;20057;-76
2023/06/28 00:05:21;;;;;;;7.80;1.73;;;;;;;;;;5018447;28;20037;-76
2023/06/28 00:07:46;;;;;;;8.48;1.90;;;;;;;;;;5012553;28;20033;-77
2023/06/28 00:10:12;;;;;;;4.68;1.63;;;;;;;;;;5013538;28;20432;-77
2023/06/28 00:12:37;;;;;;;4.97;1.70;;;;;;;;;;5013207;28;20022;-75
2023/06/28 00:15:03;;;;;;;7.85;2.25;;;;;;;;;;5028833;28;20096;-76
2023/06/28 00:17:29;;;;;;;4.47;1.67;;;;;;;;;;5012874;28;20040;-77
2023/06/28 00:19:56;;;;;;;5.25;1.70;;;;;;;;;;5011826;28;20038;-78
2023/06/28 00:22:29;;;;;;;4.22;1.70;;;;;;;;;;5010163;28;20105;-76
2023/06/28 00:24:54;;;;;;;6.20;1.73;;;;;;;;;;5028349;28;20510;-77
2023/06/28 00:27:20;;;;;;;10.45;1.95;;;;;;;;;;5013252;28;20034;-76
2023/06/28 00:29:45;;;;;;;5.97;1.60;;;;;;;;;;5012598;28;20029;-74
2023/06/28 00:32:11;;;;;;;6.07;1.70;;;;;;;;;;4995837;28;20515;-77
2023/06/28 00:34:38;;;;;;;4.90;1.80;;;;;;;;;;5013439;28;20084;-77
2023/06/28 00:37:03;;;;;;;5.97;1.85;;;;;;;;;;5011834;28;20030;-76
2023/06/28 00:39:29;;;;;;;4.72;1.90;;;;;;;;;;5003412;28;20034;-77
2023/06/28 00:41:55;;;;;;;6.55;2.13;;;;;;;;;;5008838;28;20038;-77
2023/06/28 00:44:20;;;;;;;8.27;2.30;;;;;;;;;;4994782;28;20105;-77
2023/06/28 00:46:47;;;;;;;5.70;1.85;;;;;;;;;;5010322;28;20027;-74
2023/06/28 00:49:13;;;;;;;4.10;1.60;;;;;;;;;;4995317;28;20030;-76
2023/06/28 00:51:39;;;;;;;4.60;2.03;;;;;;;;;;5002055;28;20484;-78
2023/06/28 00:54:05;;;;;;;5.97;1.60;;;;;;;;;;5022934;28;20514;-78
2023/06/28 00:56:31;;;;;;;8.18;2.20;;;;;;;;;;5018990;28;20059;-77
2023/06/28 00:58:57;;;;;;;6.80;2.08;;;;;;;;;;5016618;28;20037;-77
2023/06/28 01:01:23;;;;;;;6.47;1.65;;;;;;;;;;5013508;28;20104;-77
2023/06/28 01:03:50;;;;;;;4.90;2.20;;;;;;;;;;5011490;28;20026;-76
2023/06/28 01:06:16;;;;;;;8.75;1.92;;;;;;;;;;5027278;28;20034;-76
2023/06/28 01:08:43;;;;;;;7.03;1.92;;;;;;;;;;5012155;28;20029;-77
2023/06/28 01:11:09;;;;;;;4.75;2.03;;;;;;;;;;5010720;28;20033;-76
2023/06/28 01:13:35;;;;;;;5.93;2.20;;;;;;;;;;5012332;28;20022;-77
2023/06/28 01:16:01;;;;;;;6.95;2.00;;;;;;;;;;4994856;28;20404;-77
2023/06/28 01:18:28;;;;;;;5.60;1.50;;;;;;;;;;5012243;28;20030;-77
2023/06/28 01:20:56;;;;;;;5.43;1.67;;;;;;;;;;5012216;28;20026;-77
2023/06/28 01:23:26;;;;;;;;;;;;;;;;;;5029216;28;20048;-76
2023/06/28 01:25:52;;;;;;;6.03;2.00;;;;;;;;;;5011905;28;19909;-77
2023/06/28 01:28:19;;;;;;;5.32;1.90;;;;;;;;;;5013246;28;20079;-76
2023/06/28 01:30:48;;;;;;;7.18;1.70;;;;;;;;;;5014290;28;20484;-76
2023/06/28 01:33:15;;;;;;;6.88;1.75;;;;;;;;;;5015449;28;20030;-78
2023/06/28 01:35:40;;;;;;;5.50;1.55;;;;;;;;;;5015796;28;20109;-77
2023/06/28 01:38:06;;;;;;;6.70;1.63;;;;;;;;;;5015540;28;20109;-76
2023/06/28 01:40:35;;;;;;;7.05;1.90;;;;;;;;;;5013818;28;20036;-76
2023/06/28 01:43:07;;;;;;;5.72;1.85;;;;;;;;;;5012477;28;20091;-77
2023/06/28 01:45:36;;;;;;;8.80;2.88;;;;;;;;;;5012602;28;20030;-77
2023/06/28 01:48:01;;;;;;;;;;;;;;;;;;5013830;28;20475;-77
2023/06/28 01:50:27;;;;;;;7.10;1.80;;;;;;;;;;5014549;28;20000;-77
2023/06/28 01:52:55;;;;;;;11.45;2.33;;;;;;;;;;5013282;28;20539;-77
2023/06/28 01:55:20;;;;;;;4.53;1.92;;;;;;;;;;5013338;28;20054;-77
2023/06/28 01:57:46;;;;;;;5.97;2.17;;;;;;;;;;5013038;28;20495;-76
2023/06/28 02:00:11;;;;;;;5.50;1.80;;;;;;;;;;5012121;28;20037;-77
2023/06/28 02:02:43;;;;;;;5.93;1.90;;;;;;;;;;5014131;28;20104;-76
2023/06/28 02:05:08;;;;;;;6.72;1.90;;;;;;;;;;4996886;28;20124;-77
2023/06/28 02:07:34;;;;;;;7.80;2.33;;;;;;;;;;5014176;28;20030;-77
2023/06/28 02:10:00;;;;;;;8.80;1.77;;;;;;;;;;5014374;28;20026;-78
2023/06/28 02:12:26;;;;;;;4.25;1.58;;;;;;;;;;5012592;28;20486;-77
2023/06/28 02:14:52;;;;;;;5.60;1.92;;;;;;;;;;5014273;28;20034;-76
2023/06/28 02:17:20;;;;;;;5.38;1.58;;;;;;;;;;5010810;28;20025;-76
2023/06/28 02:19:47;;;;;;;6.80;1.92;;;;;;;;;;4993623;28;20042;-76
2023/06/28 02:22:13;;;;;;;6.82;1.75;;;;;;;;;;4994602;28;20023;-77
2023/06/28 02:24:38;;;;;;;7.00;1.65;;;;;;;;;;4977189;28;20567;-77
2023/06/28 02:27:04;;;;;;;7.45;1.65;;;;;;;;;;5009531;28;20027;-77
2023/06/28 02:29:30;;;;;;;6.30;1.67;;;;;;;;;;4994759;28;20034;-76
2023/06/28 02:31:55;;;;;;;6.28;1.75;;;;;;;;;;4994313;28;20053;-77
2023/06/28 02:34:22;;;;;;;7.10;1.60;;;;;;;;;;4993409;28;20037;-77
2023/06/28 02:36:47;;;;;;;5.95;1.50;;;;;;;;;;4998732;28;20394;-76
2023/06/28 02:39:13;;;;;;;7.28;1.90;;;;;;;;;;4994912;28;20478;-74
2023/06/28 02:41:39;;;;;;;6.72;1.70;;;;;;;;;;5009679;28;20030;-77
2023/06/28 02:44:05;;;;;;;10.05;2.30;;;;;;;;;;4993680;28;20034;-77
2023/06/28 02:46:31;;;;;;;4.03;1.50;;;;;;;;;;5010125;28;20141;-76
2023/06/28 02:48:57;;;;;;;5.00;1.60;;;;;;;;;;4993552;28;20030;-75
2023/06/28 02:51:23;;;;;;;5.63;1.63;;;;;;;;;;4994277;28;20026;-77
2023/06/28 02:53:48;;;;;;;7.40;1.67;;;;;;;;;;4997851;28;20105;-76
2023/06/28 02:56:15;;;;;;;9.60;2.30;;;;;;;;;;4996830;28;20033;-76
2023/06/28 02:58:59;;;;;;;7.82;1.95;;;;;;;;;;5013927;28;20497;-75
2023/06/28 03:01:26;;;;;;;3.60;1.40;;;;;;;;;;5012347;28;20033;-75
2023/06/28 03:03:52;;;;;;;6.78;1.60;;;;;;;;;;5012205;28;20408;-77
2023/06/28 03:06:18;;;;;;;5.97;1.42;;;;;;;;;;5011975;28;20029;-76
2023/06/28 03:08:43;;;;;;;7.70;1.60;;;;;;;;;;5011931;28;20037;-76
2023/06/28 03:11:09;;;;;;;6.55;1.88;;;;;;;;;;5012788;28;20029;-78
2023/06/28 03:13:34;;;;;;;9.10;1.83;;;;;;;;;;5006823;28;20033;-77
2023/06/28 03:16:00;;;;;;;6.63;1.33;;;;;;;;;;5009083;28;20037;-75
2023/06/28 03:18:26;;;;;;;5.03;1.30;;;;;;;;;;4992664;28;20653;-76
2023/06/28 03:20:52;;;;;;;14.35;1.80;;;;;;;;;;4992091;28;20371;-77
2023/06/28 03:23:17;;;;;;;7.40;2.03;;;;;;;;;;4993838;28;20030;-75
2023/06/28 03:25:43;;;;;;;3.78;1.35;;;;;;;;;;4992461;28;20113;-77
2023/06/28 03:28:09;;;;;;;6.50;1.65;;;;;;;;;;5009348;28;20502;-77
2023/06/28 03:30:35;;;;;;;8.23;1.65;;;;;;;;;;4981129;28;20117;-77
2023/06/28 03:33:01;;;;;;;6.10;1.40;;;;;;;;;;4977590;28;20114;-77
2023/06/28 03:35:26;;;;;;;5.60;1.63;;;;;;;;;;5014960;28;20038;-76
2023/06/28 03:37:52;;;;;;;10.18;1.70;;;;;;;;;;4987048;28;20045;-76
2023/06/28 03:40:18;;;;;;;5.88;1.60;;;;;;;;;;5017818;28;20045;-77
2023/06/28 03:42:44;;;;;;;5.88;1.60;;;;;;;;;;5017154;28;20062;-75
2023/06/28 03:45:10;;;;;;;4.45;1.50;;;;;;;;;;5011877;28;20498;-75
2023/06/28 03:47:35;;;;;;;5.55;1.90;;;;;;;;;;4998694;28;20030;-75
2023/06/28 03:50:01;;;;;;;10.43;2.05;;;;;;;;;;4992507;28;20101;-76
2023/06/28 03:52:27;;;;;;;6.47;1.73;;;;;;;;;;4974970;28;20479;-77
2023/06/28 03:54:53;;;;;;;5.75;1.67;;;;;;;;;;4993176;28;20073;-77
2023/06/28 03:57:21;;;;;;;6.05;1.95;;;;;;;;;;5008166;28;20549;-77
2023/06/28 03:59:46;;;;;;;9.63;1.70;;;;;;;;;;4991781;28;20043;-77
2023/06/28 04:02:12;;;;;;;9.60;1.55;;;;;;;;;;4992608;28;20038;-77
2023/06/28 04:04:37;;;;;;;7.80;1.70;;;;;;;;;;5015946;28;20030;-76
2023/06/28 04:07:03;;;;;;;6.45;1.70;;;;;;;;;;5012176;28;20057;-77
2023/06/28 04:09:29;;;;;;;5.72;2.17;;;;;;;;;;5012499;28;20052;-77
2023/06/28 04:11:54;;;;;;;5.72;1.80;;;;;;;;;;5010706;28;20037;-78
2023/06/28 04:14:20;;;;;;;6.70;1.60;;;;;;;;;;5027749;28;20034;-76
2023/06/28 04:16:45;;;;;;;12.40;1.70;;;;;;;;;;5011332;28;20037;-75
2023/06/28 04:19:11;;;;;;;8.60;1.70;;;;;;;;;;5012328;28;20033;-77
2023/06/28 04:21:36;;;;;;;10.32;1.73;;;;;;;;;;5011791;28;20025;-75
2023/06/28 04:24:02;;;;;;;4.30;1.50;;;;;;;;;;4996307;28;20034;-77
2023/06/28 04:26:27;;;;;;;7.68;1.58;;;;;;;;;;4975551;28;20042;-76
2023/06/28 04:28:53;;;;;;;6.18;1.50;;;;;;;;;;4992194;28;20027;-76
2023/06/28 04:31:19;;;;;;;6.53;1.75;;;;;;;;;;4992995;28;20023;-76
2023/06/28 04:33:45;;;;;;;6.53;1.52;;;;;;;;;;4992981;28;20027;-76
2023/06/28 04:36:11;;;;;;;4.57;1.33;;;;;;;;;;5008175;28;20033;-77
2023/06/28 04:38:38;;;;;;;7.20;2.78;;;;;;;;;;4975931;28;20042;-76
2023/06/28 04:41:03;;;;;;;6.53;1.60;;;;;;;;;;5002549;28;20041;-76
2023/06/28 04:43:29;;;;;;;6.18;1.40;;;;;;;;;;5012460;28;20055;-76
2023/06/28 04:45:55;;;;;;;7.32;1.90;;;;;;;;;;4994956;28;20040;-77
2023/06/28 04:48:21;;;;;;;6.10;1.92;;;;;;;;;;5012530;28;20065;-77
2023/06/28 04:50:47;;;;;;;7.95;1.70;;;;;;;;;;5012215;28;20088;-76
2023/06/28 04:53:13;;;;;;;7.57;1.85;;;;;;;;;;5012665;28;20504;-77
2023/06/28 04:55:38;;;;;;;9.15;2.10;;;;;;;;;;5012741;28;20026;-76
2023/06/28 04:58:07;;;;;;;5.30;1.50;;;;;;;;;;5010754;28;20041;-77
2023/06/28 05:00:33;;;;;;;5.13;1.67;;;;;;;;;;4995648;28;20038;-76
2023/06/28 05:03:02;;;;;;;5.82;2.08;;;;;;;;;;5013203;28;20112;-77
2023/06/28 05:05:27;;;;;;;;;;;;;;;;;;5015689;28;20120;-76
2023/06/28 05:07:53;;;;;;;6.97;1.75;;;;;;;;;;5016678;28;19955;-77
2023/06/28 05:10:22;;;;;;;11.13;1.80;;;;;;;;;;5015358;28;20087;-77
2023/06/28 05:12:50;;;;;;;5.07;1.60;;;;;;;;;;5012358;28;20049;-77
2023/06/28 05:15:16;;;;;;;8.38;2.92;;;;;;;;;;5011649;28;20077;-76
2023/06/28 05:17:42;;;;;;;8.00;2.40;;;;;;;;;;4995863;28;20023;-77
2023/06/28 05:20:08;;;;;;;6.55;1.95;;;;;;;;;;4995578;28;20109;-74
2023/06/28 05:22:33;;;;;;;6.68;1.67;;;;;;;;;;4995357;28;20521;-76
2023/06/28 05:24:59;;;;;;;4.57;1.48;;;;;;;;;;4995693;28;20030;-77
2023/06/28 05:27:25;;;;;;;7.05;1.80;;;;;;;;;;4995417;28;20030;-77
2023/06/28 05:29:50;;;;;;;9.88;1.92;;;;;;;;;;4994906;28;20449;-77
2023/06/28 05:32:16;;;;;;;6.53;1.85;;;;;;;;;;4999097;28;20038;-76
2023/06/28 05:34:41;;;;;;;5.68;1.77;;;;;;;;;;4995146;28;20027;-77
2023/06/28 05:37:07;;;;;;;6.65;1.73;;;;;;;;;;4995054;28;20394;-78
2023/06/28 05:39:32;;;;;;;10.30;1.92;;;;;;;;;;4994224;28;20487;-76
2023/06/28 05:41:58;;;;;;;6.85;1.77;;;;;;;;;;4995562;28;20030;-77
2023/06/28 05:44:23;;;;;;;6.88;1.77;;;;;;;;;;4977710;28;20039;-76
2023/06/28 05:46:49;;;;;;;7.13;1.60;;;;;;;;;;5012149;28;20033;-77
2023/06/28 05:49:15;;;;;;;14.10;2.17;;;;;;;;;;5008164;28;20080;-76
2023/06/28 05:51:41;;;;;;;7.75;1.90;;;;;;;;;;5014273;28;20112;-76
2023/06/28 05:54:06;;;;;;;10.75;3.10;;;;;;;;;;5014141;28;20053;-77
2023/06/28 05:56:32;;;;;;;8.10;1.88;;;;;;;;;;5013136;28;20056;-77
2023/06/28 05:58:57;;;;;;;7.05;1.70;;;;;;;;;;5053917;22;20052;-81
2023/06/28 06:01:23;;;;;;;9.85;1.90;;;;;;;;;;5054108;28;20063;-79
2023/06/28 06:03:49;;;;;;;6.63;1.67;;;;;;;;;;5036312;28;20481;-79
2023/06/28 06:06:15;;;;;;;9.85;2.13;;;;;;;;;;5071593;28;20066;-78
2023/06/28 06:08:40;;;;;;;9.30;2.13;;;;;;;;;;5055809;28;20052;-80
2023/06/28 06:11:06;;;;;;;9.77;2.03;;;;;;;;;;5057144;28;20028;-79
2023/06/28 06:13:31;;;;;;;11.77;2.85;;;;;;;;;;5042075;28;20033;-79
2023/06/28 06:15:57;;;;;;;6.97;1.67;;;;;;;;;;5062861;28;20021;-79
2023/06/28 06:18:22;;;;;;;6.40;1.92;;;;;;;;;;5057320;28;20020;-78
2023/06/28 06:20:48;;;;;;;8.30;2.08;;;;;;;;;;5061164;28;20041;-79
2023/06/28 06:23:14;;;;;;;10.95;2.15;;;;;;;;;;5053374;28;20025;-80
2023/06/28 06:25:39;;;;;;;10.65;1.88;;;;;;;;;;5067254;28;20593;-80
2023/06/28 06:28:05;;;;;;;10.07;1.98;;;;;;;;;;5066646;28;20051;-78
2023/06/28 06:30:30;;;;;;;5.93;2.05;;;;;;;;;;5040350;28;20140;-78
2023/06/28 06:32:56;;;;;;;8.75;2.10;;;;;;;;;;5057567;28;20032;-79
2023/06/28 06:35:21;;;;;;;11.50;2.33;;;;;;;;;;5055445;28;20514;-80
2023/06/28 06:37:47;;;;;;;14.27;2.10;;;;;;;;;;5056367;28;20029;-79
2023/06/28 06:40:12;;;;;;;9.73;2.00;;;;;;;;;;5048918;28;20120;-80
2023/06/28 06:42:38;;;;;;;11.38;2.13;;;;;;;;;;5036693;28;20036;-81
2023/06/28 06:45:05;;;;;;;5.38;1.90;;;;;;;;;;5054764;28;20025;-80
2023/06/28 06:47:30;;;;;;;10.75;2.05;;;;;;;;;;5052870;28;20052;-80
2023/06/28 06:49:56;;;;;;;12.23;2.88;;;;;;;;;;5053315;28;20025;-80
2023/06/28 06:52:21;;;;;;;8.57;1.55;;;;;;;;;;5054190;28;20036;-81
2023/06/28 06:54:47;;;;;;;12.55;2.63;;;;;;;;;;5052768;28;20036;-80
2023/06/28 06:57:14;;;;;;;7.45;2.60;;;;;;;;;;5049417;28;20036;-79
2023/06/28 06:59:40;;;;;;;9.15;1.88;;;;;;;;;;5049757;28;20032;-79
2023/06/28 07:02:05;;;;;;;6.13;1.70;;;;;;;;;;5051850;28;20047;-80
2023/06/28 07:04:31;;;;;;;6.45;1.67;;;;;;;;;;5037676;28;20113;-83
2023/06/28 07:06:56;;;;;;;13.48;2.30;;;;;;;;;;5059982;28;20574;-83
2023/06/28 07:09:22;;;;;;;12.98;2.63;;;;;;;;;;5056055;28;20388;-81
2023/06/28 07:11:47;;;;;;;7.20;2.08;;;;;;;;;;5053101;28;20025;-81
2023/06/28 07:14:13;;;;;;;5.28;1.50;;;;;;;;;;5035508;28;20036;-80
2023/06/28 07:16:39;;;;;;;6.63;2.00;;;;;;;;;;5043056;28;20029;-82
2023/06/28 07:19:06;;;;;;;6.35;1.63;;;;;;;;;;5047818;28;20036;-80
2023/06/28 07:21:31;;;;;;;7.30;1.90;;;;;;;;;;5031556;28;20029;-80
2023/06/28 07:23:57;;;;;;;9.90;1.98;;;;;;;;;;5032711;28;20021;-79
2023/06/28 07:26:23;;;;;;;11.43;3.65;;;;;;;;;;5032441;28;20120;-79
2023/06/28 07:28:51;;;;;;;9.57;2.17;;;;;;;;;;5030588;28;20022;-81
2023/06/28 07:31:17;;;;;;;7.35;1.70;;;;;;;;;;5048472;28;20025;-81
2023/06/28 07:33:43;;;;;;;9.15;1.85;;;;;;;;;;5055270;28;20040;-80
2023/06/28 07:36:08;;;;;;;6.88;1.80;;;;;;;;;;5035442;28;20483;-83
2023/06/28 07:38:34;;;;;;;7.85;2.08;;;;;;;;;;5049345;28;20037;-81
2023/06/28 07:41:00;;;;;;;8.02;1.90;;;;;;;;;;5050787;28;20033;-81
2023/06/28 07:43:25;;;;;;;7.30;1.73;;;;;;;;;;5022472;28;20044;-82
2023/06/28 07:45:52;;;;;;;6.90;1.70;;;;;;;;;;5007045;28;20106;-80
2023/06/28 07:48:17;;;;;;;7.25;1.98;;;;;;;;;;5033918;28;20530;-82
2023/06/28 07:50:44;;;;;;;5.78;1.70;;;;;;;;;;5014603;28;20037;-82
2023/06/28 07:53:09;;;;;;;7.25;2.15;;;;;;;;;;5032837;28;20029;-81
2023/06/28 07:55:35;;;;;;;8.75;2.38;;;;;;;;;;5032256;28;20029;-84
2023/06/28 07:58:01;;;;;;;7.70;1.50;;;;;;;;;;5023406;28;20069;-84
2023/06/28 08:00:28;;;;;;;10.15;2.40;;;;;;;;;;5045720;28;20025;-79
2023/06/28 08:02:54;;;;;;;5.93;1.70;;;;;;;;;;5048381;28;20033;-80
2023/06/28 08:05:19;;;;;;;10.00;1.67;;;;;;;;;;5027661;28;20148;-82
2023/06/28 08:07:45;;;;;;;7.75;1.50;;;;;;;;;;5036287;28;20025;-81
2023/06/28 08:10:11;;;;;;;8.80;1.70;;;;;;;;;;5038060;28;20018;-80
2023/06/28 08:12:36;;;;;;;8.27;1.70;;;;;;;;;;5030586;28;20037;-80
2023/06/28 08:15:02;;;;;;;297.70;152.90;;;;;;;;;;5025843;28;20037;-83
2023/06/28 08:17:27;;;;;;;11.95;5.82;;;;;;;;;;4998294;28;20437;-88
2023/06/28 08:19:56;;;;;;;18.40;9.65;;;;;;;;;;5046189;28;20041;-85
2023/06/28 08:22:25;;;;;;;22.00;11.65;;;;;;;;;;5015986;28;20043;-87
2023/06/28 08:24:50;;;;;;;18.52;8.50;;;;;;;;;;5015883;28;20057;-87
2023/06/28 08:27:16;;;;;;;16.10;7.15;;;;;;;;;;5016395;28;20068;-85
2023/06/28 08:29:41;;;;;;;5.30;1.52;;;;;;;;;;5033471;28;20088;-83
2023/06/28 08:32:09;;;;;;;11.43;2.08;;;;;;;;;;5019034;28;20083;-84
2023/06/28 08:34:35;;;;;;;8.68;1.83;;;;;;;;;;5000959;28;20120;-84
2023/06/28 08:37:00;;;;;;;6.95;1.30;;;;;;;;;;5017993;28;20444;-86
2023/06/28 08:39:26;;;;;;;6.18;1.75;;;;;;;;;;5036612;28;20033;-85
2023/06/28 08:41:52;;;;;;;7.40;2.00;;;;;;;;;;5021398;28;20473;-86
2023/06/28 08:44:19;;;;;;;4.55;1.60;;;;;;;;;;5038679;28;20037;-85
2023/06/28 08:46:46;;;;;;;9.77;2.13;;;;;;;;;;5044590;28;20021;-85
2023/06/28 08:49:12;;;;;;;5.50;1.55;;;;;;;;;;5028462;28;20022;-83
2023/06/28 08:51:38;;;;;;;3.83;1.05;;;;;;;;;;5028844;28;20029;-84
2023/06/28 08:54:04;;;;;;;8.35;1.70;;;;;;;;;;5032313;28;20037;-83
2023/06/28 08:56:32;;;;;;;4.70;1.67;;;;;;;;;;5049943;28;20056;-84
2023/06/28 08:58:58;;;;;;;4.65;1.50;;;;;;;;;;5067911;28;20400;-84
2023/06/28 09:01:23;;;;;;;5.05;1.63;;;;;;;;;;5075292;28;20403;-85
2023/06/28 09:03:49;;;;;;;5.10;1.40;;;;;;;;;;5075967;28;20033;-84
2023/06/28 09:06:15;;;;;;;5.18;1.17;;;;;;;;;;5078595;28;20040;-83
2023/06/28 09:08:41;;;;;;;7.07;1.52;;;;;;;;;;5061823;28;20131;-86
2023/06/28 09:11:07;;;;;;;7.00;1.55;;;;;;;;;;5041937;28;20037;-84
2023/06/28 09:13:33;;;;;;;5.05;1.40;;;;;;;;;;5053146;28;20053;-82
2023/06/28 09:15:58;;;;;;;5.05;1.58;;;;;;;;;;5032963;28;20025;-84
2023/06/28 09:18:24;;;;;;;5.50;1.52;;;;;;;;;;5063986;28;20078;-83
2023/06/28 09:20:51;;;;;;;3.95;1.20;;;;;;;;;;5031106;28;20033;-85
2023/06/28 09:23:26;;;;;;;4.05;1.27;;;;;;;;;;5060040;28;20537;-85
2023/06/28 09:25:52;;;;;;;6.57;1.30;;;;;;;;;;5019288;28;20053;-78
2023/06/28 09:28:19;;;;;;;6.25;1.52;;;;;;;;;;5018178;28;20460;-79
2023/06/28 09:30:54;;;;;;;7.60;1.98;;;;;;;;;;5036448;28;20559;-82
2023/06/28 09:33:20;;;;;;;125.80;90.32;;;;;;;;;;5038352;28;20033;-85
2023/06/28 09:35:46;;;;;;;7.55;3.75;;;;;;;;;;5038170;28;20033;-86
2023/06/28 09:38:11;;;;;;;4.35;1.13;;;;;;;;;;5018939;28;20385;-86
2023/06/28 09:40:37;;;;;;;5.40;1.40;;;;;;;;;;5037878;28;20045;-86
2023/06/28 09:43:03;;;;;;;9.70;1.83;;;;;;;;;;5054952;28;20517;-85
2023/06/28 09:45:30;;;;;;;7.47;1.73;;;;;;;;;;5024518;28;20472;-85
2023/06/28 09:48:00;;;;;;;5.35;1.60;;;;;;;;;;5034900;28;20103;-84
2023/06/28 09:50:38;;;;;;;7.78;1.60;;;;;;;;;;5039325;28;20029;-84
2023/06/28 09:53:11;;;;;;;6.13;1.83;;;;;;;;;;5046462;28;20038;-85
2023/06/28 09:55:38;;;;;;;4.68;1.13;;;;;;;;;;5056453;28;20037;-85
2023/06/28 09:58:06;;;;;;;3.92;1.10;;;;;;;;;;5054596;28;20124;-82
2023/06/28 10:00:32;;;;;;;3.78;1.02;;;;;;;;;;5054666;28;20139;-85
2023/06/28 10:02:58;;;;;;;9.52;2.90;;;;;;;;;;5054756;28;20037;-81
2023/06/28 10:05:24;;;;;;;5.28;1.42;;;;;;;;;;5053963;28;20545;-82
2023/06/28 10:07:50;;;;;;;6.57;1.60;;;;;;;;;;5052385;28;20090;-81
2023/06/28 10:10:17;;;;;;;5.03;1.30;;;;;;;;;;5054338;28;20052;-80
2023/06/28 10:12:43;;;;;;;4.20;1.23;;;;;;;;;;5053715;28;20033;-82
2023/06/28 10:15:15;;;;;;;5.07;1.00;;;;;;;;;;5052726;28;20036;-81
2023/06/28 10:17:41;;;;;;;6.70;1.50;;;;;;;;;;5052619;28;20049;-81
2023/06/28 10:20:07;;;;;;;6.13;1.83;;;;;;;;;;5054246;28;20052;-81
2023/06/28 10:22:33;;;;;;;3.40;1.02;;;;;;;;;;5056261;28;20028;-82
2023/06/28 10:24:59;;;;;;;4.03;1.20;;;;;;;;;;5039105;28;20025;-81
2023/06/28 10:27:25;;;;;;;5.85;1.38;;;;;;;;;;5055323;28;20037;-81
2023/06/28 10:29:51;;;;;;;4.22;1.27;;;;;;;;;;5057695;28;20017;-81
2023/06/28 10:32:16;;;;;;;5.35;1.23;;;;;;;;;;5038957;28;20503;-82
2023/06/28 10:34:42;;;;;;;4.35;1.17;;;;;;;;;;5056205;28;20033;-81
2023/06/28 10:37:08;;;;;;;9.73;1.55;;;;;;;;;;5058281;28;20033;-82
2023/06/28 10:39:38;;;;;;;5.35;1.30;;;;;;;;;;5060275;28;20111;-81
2023/06/28 10:42:04;;;;;;;6.85;1.92;;;;;;;;;;5059570;28;20025;-80
2023/06/28 10:44:32;;;;;;;5.38;1.40;;;;;;;;;;5044360;28;20079;-82
2023/06/28 10:47:12;;;;;;;7.38;1.40;;;;;;;;;;5065677;28;20033;-83
2023/06/28 10:49:41;;;;;;;5.30;1.10;;;;;;;;;;5065816;28;20056;-82
2023/06/28 10:52:06;;;;;;;;;;;;;;;;;;5064364;28;20029;-82
2023/06/28 10:54:32;;;;;;;2.78;0.90;;;;;;;;;;5067628;28;20402;-80
2023/06/28 10:57:07;;;;;;;2.40;1.20;;;;;;;;;;5070125;28;20016;-81
2023/06/28 10:59:35;;;;;;;6.40;1.60;;;;;;;;;;5063341;28;20040;-84
2023/06/28 11:02:01;;;;;;;6.10;2.42;;;;;;;;;;5065367;28;20097;-82
2023/06/28 11:04:27;;;;;;;4.35;1.27;;;;;;;;;;5064951;28;20024;-81
2023/06/28 11:07:07;;;;;;;10.95;1.48;;;;;;;;;;5066818;28;20032;-81
2023/06/28 11:09:33;;;;;;;4.18;1.30;;;;;;;;;;5059555;28;20060;-83
2023/06/28 11:11:59;;;;;;;5.13;1.20;;;;;;;;;;5056267;28;20488;-83
2023/06/28 11:14:26;;;;;;;4.45;1.25;;;;;;;;;;5056525;28;20025;-82
2023/06/28 11:16:52;;;;;;;4.70;2.00;;;;;;;;;;5056194;28;20040;-82
2023/06/28 11:19:19;;;;;;;3.67;1.20;;;;;;;;;;5046794;28;20071;-82
2023/06/28 11:22:02;;;;;;;3.70;1.20;;;;;;;;;;5064974;28;20037;-83
2023/06/28 11:24:37;;;;;;;4.30;1.13;;;;;;;;;;5065698;28;20048;-83
2023/06/28 11:27:03;;;;;;;3.90;1.42;;;;;;;;;;5063953;28;20372;-81
2023/06/28 11:29:28;;;;;;;5.95;1.20;;;;;;;;;;5064141;28;20051;-83
2023/06/28 11:31:58;;;;;;;5.95;1.10;;;;;;;;;;5062785;28;20396;-82
2023/06/28 11:34:25;;;;;;;4.22;1.25;;;;;;;;;;5061212;28;20545;-82
2023/06/28 11:36:51;;;;;;;4.07;1.00;;;;;;;;;;5060237;28;20068;-83
2023/06/28 11:39:21;;;;;;;9.27;3.83;;;;;;;;;;5056577;28;20031;-82
2023/06/28 11:41:47;;;;;;;7.55;1.55;;;;;;;;;;5056589;28;20025;-83
2023/06/28 11:44:21;;;;;;;4.43;1.20;;;;;;;;;;5058800;28;20029;-82
2023/06/28 11:46:47;;;;;;;6.75;1.30;;;;;;;;;;5074162;28;20029;-81
2023/06/28 11:49:16;;;;;;;2.78;1.00;;;;;;;;;;5073744;28;20558;-83
2023/06/28 11:51:42;;;;;;;3.95;1.02;;;;;;;;;;5070372;28;20031;-81
2023/06/28 11:54:08;;;;;;;5.35;1.27;;;;;;;;;;5058296;28;20033;-82
2023/06/28 11:56:40;;;;;;;4.20;1.27;;;;;;;;;;5065613;28;20035;-83
2023/06/28 11:59:15;;;;;;;3.85;1.30;;;;;;;;;;5056969;22;20516;-76
2023/06/28 12:01:41;;;;;;;2.47;0.88;;;;;;;;;;5032754;28;20029;-77
2023/06/28 12:04:14;;;;;;;4.88;1.17;;;;;;;;;;5014981;28;20025;-75
2023/06/28 12:06:41;;;;;;;5.10;1.20;;;;;;;;;;5032463;28;20030;-77
2023/06/28 12:09:24;;;;;;;3.15;1.02;;;;;;;;;;5031132;28;20026;-75
2023/06/28 12:11:54;;;;;;;3.03;0.90;;;;;;;;;;5031768;28;20021;-76
2023/06/28 12:14:20;;;;;;;5.10;1.70;;;;;;;;;;5014667;28;20369;-77
2023/06/28 12:16:46;;;;;;;5.38;1.02;;;;;;;;;;5033042;28;20052;-77
2023/06/28 12:19:14;;;;;;;6.43;1.20;;;;;;;;;;5015591;28;20116;-76
2023/06/28 12:21:39;;;;;;;3.67;1.00;;;;;;;;;;5014961;28;20052;-78
2023/06/28 12:24:12;;;;;;;4.82;1.17;;;;;;;;;;5033547;28;20105;-76
2023/06/28 12:26:38;;;;;;;4.47;1.15;;;;;;;;;;5014801;28;20047;-78
2023/06/28 12:29:07;;;;;;;4.97;1.20;;;;;;;;;;5031848;28;20029;-76
2023/06/28 12:31:40;;;;;;;4.60;1.20;;;;;;;;;;5032175;28;20030;-76
2023/06/28 12:34:05;;;;;;;3.03;1.00;;;;;;;;;;5032423;28;20029;-77
2023/06/28 12:36:34;;;;;;;6.25;1.85;;;;;;;;;;5030639;28;20404;-78
2023/06/28 12:39:00;;;;;;;3.75;1.00;;;;;;;;;;5031794;28;20057;-76
2023/06/28 12:41:25;;;;;;;3.40;1.30;;;;;;;;;;5031435;28;20060;-76
2023/06/28 12:43:56;;;;;;;4.90;1.10;;;;;;;;;;5030509;28;20494;-77
2023/06/28 12:46:21;;;;;;;6.10;1.33;;;;;;;;;;5031840;28;20128;-77
2023/06/28 12:48:47;;;;;;;5.15;1.10;;;;;;;;;;5030086;28;20151;-77
2023/06/28 12:51:12;;;;;;;4.15;1.30;;;;;;;;;;5029998;28;20029;-77
2023/06/28 12:53:38;;;;;;;7.10;1.30;;;;;;;;;;5031775;28;20033;-76
2023/06/28 12:56:03;;;;;;;4.80;1.33;;;;;;;;;;5031803;28;20030;-76
2023/06/28 12:58:29;;;;;;;3.58;1.25;;;;;;;;;;5031357;28;20544;-76
2023/06/28 13:00:54;;;;;;;6.00;1.40;;;;;;;;;;5030220;28;20037;-77
2023/06/28 13:03:20;;;;;;;3.10;1.23;;;;;;;;;;5030642;28;20099;-77
2023/06/28 13:05:46;;;;;;;5.38;1.20;;;;;;;;;;5031654;28;20424;-77
2023/06/28 13:08:11;;;;;;;4.57;1.35;;;;;;;;;;5030535;28;20055;-76
2023/06/28 13:10:37;;;;;;;3.88;1.48;;;;;;;;;;5030265;28;20063;-78
2023/06/28 13:13:02;;;;;;;4.85;1.20;;;;;;;;;;5030819;28;20033;-76
2023/06/28 13:15:28;;;;;;;2.60;1.00;;;;;;;;;;5031324;28;20037;-76
2023/06/28 13:17:54;;;;;;;2.63;0.90;;;;;;;;;;5032096;28;20025;-78
2023/06/28 13:20:19;;;;;;;2.90;1.08;;;;;;;;;;5031725;28;20040;-76
2023/06/28 13:22:45;;;;;;;3.30;1.20;;;;;;;;;;5030620;28;20079;-77
2023/06/28 13:25:10;;;;;;;4.50;1.48;;;;;;;;;;5032105;28;20037;-76
2023/06/28 13:27:36;;;;;;;6.18;1.30;;;;;;;;;;5035005;28;20030;-78
2023/06/28 13:30:02;;;;;;;2.97;0.90;;;;;;;;;;5035345;28;20523;-77
2023/06/28 13:32:28;;;;;;;4.10;1.20;;;;;;;;;;5034749;28;20087;-77
2023/06/28 13:34:53;;;;;;;4.50;1.25;;;;;;;;;;5035157;28;20091;-77
2023/06/28 13:37:19;;;;;;;3.45;1.10;;;;;;;;;;5033608;28;20488;-78
2023/06/28 13:39:44;;;;;;;3.65;1.20;;;;;;;;;;5033785;28;20052;-78
2023/06/28 13:42:10;;;;;;;5.28;1.13;;;;;;;;;;5034233;28;20037;-78
2023/06/28 13:44:35;;;;;;;4.20;1.13;;;;;;;;;;5049851;28;20465;-75
2023/06/28 13:47:01;;;;;;;3.88;1.15;;;;;;;;;;5033500;28;20040;-77
2023/06/28 13:49:29;;;;;;;4.68;1.60;;;;;;;;;;5034412;28;20516;-77
2023/06/28 13:51:54;;;;;;;2.90;1.20;;;;;;;;;;5032965;28;20026;-76
2023/06/28 13:54:20;;;;;;;2.78;1.00;;;;;;;;;;5034413;28;20029;-76
2023/06/28 13:56:46;;;;;;;5.35;1.20;;;;;;;;;;5034603;28;20057;-76
2023/06/28 13:59:11;;;;;;;4.03;1.10;;;;;;;;;;5032905;28;20041;-77
2023/06/28 14:01:37;;;;;;;4.28;1.50;;;;;;;;;;5033142;28;20515;-77
2023/06/28 14:04:03;;;;;;;5.15;1.40;;;;;;;;;;5033545;28;20042;-76
2023/06/28 14:06:28;;;;;;;3.08;1.00;;;;;;;;;;5034786;28;20392;-77
2023/06/28 14:08:54;;;;;;;2.85;1.30;;;;;;;;;;5050045;28;20037;-78
2023/06/28 14:11:20;;;;;;;5.53;1.75;;;;;;;;;;5034278;28;20029;-77
2023/06/28 14:13:45;;;;;;;5.57;1.40;;;;;;;;;;5049868;28;20033;-77
2023/06/28 14:16:11;;;;;;;3.30;1.13;;;;;;;;;;5034720;28;20032;-77
2023/06/28 14:18:37;;;;;;;4.13;1.20;;;;;;;;;;5035430;28;20397;-77
2023/06/28 14:21:02;;;;;;;9.60;1.40;;;;;;;;;;5034829;28;20028;-77
2023/06/28 14:23:28;;;;;;;3.05;1.20;;;;;;;;;;5035644;28;20113;-78
2023/06/28 14:25:54;;;;;;;4.72;1.63;;;;;;;;;;5040497;28;20041;-78
2023/06/28 14:28:21;;;;;;;6.22;1.35;;;;;;;;;;5040162;28;20025;-78
2023/06/28 14:30:46;;;;;;;6.03;2.70;;;;;;;;;;5043175;28;20029;-76
2023/06/28 14:33:12;;;;;;;3.33;1.02;;;;;;;;;;5041202;28;20254;-76
2023/06/28 14:35:37;;;;;;;2.95;1.15;;;;;;;;;;5038919;28;20033;-78
2023/06/28 14:38:03;;;;;;;4.55;1.40;;;;;;;;;;5036642;28;20542;-78